Mount Union, Pennsylvania
Current Conditions -  °F | °C
As of 2:53 PM on Tuesday 21 Oct 2014 (Local Time) from KAOO Reporting Station
Overcast Overcast  
Wind Chill: 56°   Ceiling: 6000
Heat Index: 56°   Visibility: 10mi
Dew Point: 47°   Wind: 6mph
Humidity: 72%   Direction: 350°N
Pressure: 29.83"   Gusts: NA
Location:  40.38°N, 77.88°W
Report Text: KAOO 211853Z AUTO 35005KT 10SM SCT037 BKN060 OVC070 13/08 A2983 RMK AO2 SLP101 T01330083
Loading
Personal Weather Stations






























Interactive Weather Map
Tropical Storm Tracking
New forecast layout! Learn more

10-Day Weather Forecast

Advertisements
Track Severe Weather on mobile